Hauptseite
METAR-TAF:

METAR-TAF

Flughäfen :

Calabar, Nigeria

Breite: 04-58N, Länge: 008-21E, Höhe: 63 m

Beobachtung

Neuester Wetterbericht von vor 15 Stunden und 17 Minuten, um 15:00 UTC
Wind 10 kt aus Südwest
Temperatur 29°C
Luftfeuchtigkeit 74%
Luftdruck 1010 hPa
Sichtweite 10 km oder mehr
Durchbrochene Bewölkung in der Höhe von 1000 ft
Leicht bewölkt in der Höhe von 2000 ft, Kumulonimbus.

METAR: DNCA 241500Z 23010KT 9999 BKN010 FEW020CB 29/24 Q1010

Zeit: 07:17 (06:17 UTC)


TAF: fehlend

Wetterbeobachtungen und Prognosen von mehr als 4000 Flughäfen (METAR und TAF Bericht).

Die verfügbaren Stationen werden durch gelbe und rote Markierungen auf der Karte dargestellt.

Führen Sie die Maus auf sie, um den Namen der Station zu sehen.

Darauf klicken, um die Beobachtung von Wetterbeobachtungen und Prognosen zu sehen.

Um die Karte zu ändern : klicken Sie auf den grünen Tasten mit einem schwarzen Kreuz Zum Vergrößern, auf den grünen Button mit einem Gedankenstrich zu verkleinern, oder auf die grünen Pfeile für benachbarte Karten.


METAR-TAF: